EFVA

Vaasa Airport

Vaasa, Finland
TAF AMD EFVA 240436Z 2405/2503 VRB02KT 0500 FZFG VV002 BECMG 2405/2407 9999 NSW BKN013 BECMG 2409/2411 CAVOK TEMPO 2418/2422 FEW020CB
Issued Valid From Valid To
Oct-24 @ 04:36 UTC
(an hour ago)
Oct-24 @ 05:00 UTC
(50 minutes ago)
Oct-25 @ 03:00 UTC
(in 21 hours)
Oct-24 @ 05:00 to Oct-25 @ 03:00
TAF AMD EFVA 240436Z 2405/2503 VRB02KT 0500 FZFG VV002
Wind Visibility Clouds Conditions
Variable at 2 knots 499 meters
  • Vertical visibility at 200' AGL
  • Freezing
  • Fog
Becoming Oct-24 @ 05:00 to Oct-24 @ 09:00
BECMG 2405/2407 9999 NSW BKN013
Wind Visibility Clouds Conditions
Variable at 2 knots 10,000+ meters
  • Broken at 1,300' AGL
Becoming Oct-24 @ 09:00 to Oct-25 @ 03:00
BECMG 2409/2411 CAVOK
Wind Visibility Clouds Conditions
Variable at 2 knots 10,000+ meters
  • No significant clouds
Temporary Oct-24 @ 18:00 to Oct-24 @ 22:00
TEMPO 2418/2422 FEW020CB
Clouds
  • Few at 2,000' AGL
TAF AMD EFVA 240436Z 2405/2503 VRB02KT 0500 FZFG VV002 BECMG 2405/2407 9999 NSW BKN013 BECMG 2409/2411 CAVOK TEMPO 2418/2422 FEW020CB
Issued Oct-24 @ 04:36 UTC
(an hour ago)
Valid From Oct-24 @ 05:00 UTC
(50 minutes ago)
Valid To Oct-25 @ 03:00 UTC
(in 21 hours)
Oct-24 @ 05:00 - Oct-25 @ 03:00
Wind Visibility
Variable at 2 knots 499 meters
Clouds
  • Vertical visibility at 200' AGL
Conditions
  • Freezing
  • Fog
Becoming Oct-24 @ 05:00 - Oct-24 @ 09:00
Wind Visibility
Variable at 2 knots 10,000+ meters
Clouds
  • Broken at 1,300' AGL
Conditions
Becoming Oct-24 @ 09:00 - Oct-25 @ 03:00
Wind Visibility
Variable at 2 knots 10,000+ meters
Clouds
  • No significant clouds
Conditions
Temporary Oct-24 @ 18:00 - Oct-24 @ 22:00
Clouds
  • Few at 2,000' AGL